Decoded Metar for SCIE (CONCEPCION in CHILE) (IATA:CCP) | Meteo·Mobile Aviation Weather
aviador You're here:

SCIE Decoded Metar

CONCEPCION in CHILE
Report Time2018-10-23 11:00:00
UTC Time2018-10-23 11:58:48
Flight Rules vfr VFR
WindVRB at 02 kt
Visibility9999 m
Phenomena:N/A
Clouds:N/A
Expected CloudBase > 800 ft AGL from Temp-Dew spread
CeilingNone
Temp12°C (ISA -3)
Dew Point10°C (88% RH)
AAT11.3°C
QNH1015 hPa
Density Alt-197 ft
Elevation52 ft
Report Wrong Elevation
Raw Report
METAR SCIE 231100Z VRB02KT CAVOK 12/10 Q1015=

Extra information for SCIE:More info

Metar Taf Metar & Taf Last 4 Metars F.Rules Stats Wind Profile Meteogram Temp Stats Airport Information Weather charts Add Link Nearby VenuesMetar ALERT Operation Metar Decoded Social comments